الصفحة الرئيسية
METAR-TAF:

METAR-TAF

مطار :

Barrow Island, أستراليا

دائرة عرض: 20-51-57S, خط طول: 115-24-17E, ارتفاع: 8 متر

مراقبة الطقس الحالي

تاريخ ووقت الإصدار 58 دقيقة قبل الساعة 06:00UTC
ريح 6 عقدة من الجنوب/الجنوب الغربي, الاتجاه يتراوح بين الجنوب/الجنوب الشرقي و الغرب
درجة الحرارة 30°درجة مئوية
الرطوبة 66%
ضغط 1008 hPa

METAR: YBWX 060600Z AUTO 21006KT 160V260 //// // ////// 30/23 Q1008

زمن: 14:58 (06:58 UTC)


TAF: مفقودة

أرصاد الطقس والتوقعات من أكثر من 4000 مطار (تقارير الطقس للمطار METAR والتنبؤ بالطقس بالمطارTAF).

المحطات المتاحة هي النقط الصفراء والحمراء على الخريطة.

حرك المؤشر فوق النقطة لمعرفة اسم المحطة.

ثم انقر لمعرفة أرصاد وتوقعات الطقس.

لتغيير الخارطة: اضغط على الأزرار الخضراء مع رمز الصليب الأسود للتكبير. على الزر الأخضر مع شرطة للتصغير، أو على الأسهم الخضراء للخرائط المجاورة.


METAR-TAF: